sensor_id;sensor_type;location;lat;lon;timestamp;temperature;humidity
851;DHT22;412;51.400;7.480;2023-02-10T00:02:22;8.00;99.90
851;DHT22;412;51.400;7.480;2023-02-10T00:04:48;8.10;99.90
851;DHT22;412;51.400;7.480;2023-02-10T00:07:13;8.10;99.90
851;DHT22;412;51.400;7.480;2023-02-10T00:09:39;8.10;99.90
851;DHT22;412;51.400;7.480;2023-02-10T00:12:05;8.00;99.90
851;DHT22;412;51.400;7.480;2023-02-10T00:14:33;8.10;99.90
851;DHT22;412;51.400;7.480;2023-02-10T00:16:59;8.10;99.90
851;DHT22;412;51.400;7.480;2023-02-10T00:19:26;8.10;99.90
851;DHT22;412;51.400;7.480;2023-02-10T00:21:52;8.10;99.90
851;DHT22;412;51.400;7.480;2023-02-10T00:24:19;8.10;99.90
851;DHT22;412;51.400;7.480;2023-02-10T00:26:45;8.10;99.90
851;DHT22;412;51.400;7.480;2023-02-10T00:29:11;8.10;99.90
851;DHT22;412;51.400;7.480;2023-02-10T00:31:37;8.10;99.90
851;DHT22;412;51.400;7.480;2023-02-10T00:34:03;8.10;99.90
851;DHT22;412;51.400;7.480;2023-02-10T00:36:28;8.20;99.90
851;DHT22;412;51.400;7.480;2023-02-10T00:38:55;8.10;99.90
851;DHT22;412;51.400;7.480;2023-02-10T00:41:22;8.20;99.90
851;DHT22;412;51.400;7.480;2023-02-10T00:43:48;8.20;99.90
851;DHT22;412;51.400;7.480;2023-02-10T00:46:16;8.20;99.90
851;DHT22;412;51.400;7.480;2023-02-10T00:48:43;8.20;99.90
851;DHT22;412;51.400;7.480;2023-02-10T00:51:09;8.20;99.90
851;DHT22;412;51.400;7.480;2023-02-10T00:53:35;8.20;99.90
851;DHT22;412;51.400;7.480;2023-02-10T00:56:01;8.20;99.90
851;DHT22;412;51.400;7.480;2023-02-10T00:58:27;8.20;99.90
851;DHT22;412;51.400;7.480;2023-02-10T01:00:54;8.20;99.90
851;DHT22;412;51.400;7.480;2023-02-10T01:03:20;8.20;99.90
851;DHT22;412;51.400;7.480;2023-02-10T01:05:46;8.20;99.90
851;DHT22;412;51.400;7.480;2023-02-10T01:08:13;8.20;99.90
851;DHT22;412;51.400;7.480;2023-02-10T01:10:39;8.30;99.90
851;DHT22;412;51.400;7.480;2023-02-10T01:13:06;8.20;99.90
851;DHT22;412;51.400;7.480;2023-02-10T01:15:32;8.20;99.90
851;DHT22;412;51.400;7.480;2023-02-10T01:17:58;8.30;99.90
851;DHT22;412;51.400;7.480;2023-02-10T01:20:25;8.30;99.90
851;DHT22;412;51.400;7.480;2023-02-10T01:22:51;8.30;99.90
851;DHT22;412;51.400;7.480;2023-02-10T01:25:17;8.30;99.90
851;DHT22;412;51.400;7.480;2023-02-10T01:27:43;8.20;99.90
851;DHT22;412;51.400;7.480;2023-02-10T01:30:10;8.20;99.90
851;DHT22;412;51.400;7.480;2023-02-10T01:32:36;8.30;99.90
851;DHT22;412;51.400;7.480;2023-02-10T01:35:02;8.20;99.90
851;DHT22;412;51.400;7.480;2023-02-10T01:37:28;8.20;99.90
851;DHT22;412;51.400;7.480;2023-02-10T01:39:53;8.20;99.90
851;DHT22;412;51.400;7.480;2023-02-10T01:42:19;8.20;99.90
851;DHT22;412;51.400;7.480;2023-02-10T01:47:11;8.30;99.90
851;DHT22;412;51.400;7.480;2023-02-10T01:49:40;8.30;99.90
851;DHT22;412;51.400;7.480;2023-02-10T01:52:10;8.30;99.90
851;DHT22;412;51.400;7.480;2023-02-10T01:55:07;8.30;99.90
851;DHT22;412;51.400;7.480;2023-02-10T01:57:35;8.30;99.90
851;DHT22;412;51.400;7.480;2023-02-10T02:00:04;8.30;99.90
851;DHT22;412;51.400;7.480;2023-02-10T02:02:31;8.30;99.90
851;DHT22;412;51.400;7.480;2023-02-10T02:05:02;8.20;99.90
851;DHT22;412;51.400;7.480;2023-02-10T02:07:32;8.20;99.90
851;DHT22;412;51.400;7.480;2023-02-10T02:09:59;8.20;99.90
851;DHT22;412;51.400;7.480;2023-02-10T02:12:51;8.30;99.90
851;DHT22;412;51.400;7.480;2023-02-10T02:15:26;8.20;99.90
851;DHT22;412;51.400;7.480;2023-02-10T02:33:37;8.20;99.90
851;DHT22;412;51.400;7.480;2023-02-10T02:36:13;8.20;99.90
851;DHT22;412;51.400;7.480;2023-02-10T02:38:42;8.10;99.90
851;DHT22;412;51.400;7.480;2023-02-10T02:41:09;8.10;99.90
851;DHT22;412;51.400;7.480;2023-02-10T02:43:36;8.10;99.90
851;DHT22;412;51.400;7.480;2023-02-10T02:46:15;8.20;99.90
851;DHT22;412;51.400;7.480;2023-02-10T02:54:20;8.00;99.90
851;DHT22;412;51.400;7.480;2023-02-10T02:57:07;8.00;99.90
851;DHT22;412;51.400;7.480;2023-02-10T02:59:50;8.10;99.90
851;DHT22;412;51.400;7.480;2023-02-10T03:02:18;8.10;99.90
851;DHT22;412;51.400;7.480;2023-02-10T03:04:47;8.10;99.90
851;DHT22;412;51.400;7.480;2023-02-10T03:07:13;8.10;99.90
851;DHT22;412;51.400;7.480;2023-02-10T03:09:40;8.00;99.90
851;DHT22;412;51.400;7.480;2023-02-10T03:12:06;8.10;99.90
851;DHT22;412;51.400;7.480;2023-02-10T03:14:32;8.00;99.90
851;DHT22;412;51.400;7.480;2023-02-10T03:16:58;8.00;99.90
851;DHT22;412;51.400;7.480;2023-02-10T03:19:23;7.90;99.90
851;DHT22;412;51.400;7.480;2023-02-10T03:21:49;8.00;99.90
851;DHT22;412;51.400;7.480;2023-02-10T03:24:15;7.90;99.90
851;DHT22;412;51.400;7.480;2023-02-10T03:26:42;8.00;99.90
851;DHT22;412;51.400;7.480;2023-02-10T03:29:09;8.00;99.90
851;DHT22;412;51.400;7.480;2023-02-10T03:31:35;8.00;99.90
851;DHT22;412;51.400;7.480;2023-02-10T03:34:00;8.00;99.90
851;DHT22;412;51.400;7.480;2023-02-10T03:36:26;8.00;99.90
851;DHT22;412;51.400;7.480;2023-02-10T03:38:52;8.00;99.90
851;DHT22;412;51.400;7.480;2023-02-10T03:41:17;8.00;99.90
851;DHT22;412;51.400;7.480;2023-02-10T03:43:43;8.00;99.90
851;DHT22;412;51.400;7.480;2023-02-10T03:46:10;7.90;99.90
851;DHT22;412;51.400;7.480;2023-02-10T03:48:37;7.90;99.90
851;DHT22;412;51.400;7.480;2023-02-10T03:51:04;8.00;99.90
851;DHT22;412;51.400;7.480;2023-02-10T03:53:32;7.90;99.90
851;DHT22;412;51.400;7.480;2023-02-10T03:55:58;8.00;99.90
851;DHT22;412;51.400;7.480;2023-02-10T03:58:24;7.90;99.90
851;DHT22;412;51.400;7.480;2023-02-10T04:00:50;7.90;99.90
851;DHT22;412;51.400;7.480;2023-02-10T04:03:16;7.80;99.90
851;DHT22;412;51.400;7.480;2023-02-10T04:05:42;7.80;99.90
851;DHT22;412;51.400;7.480;2023-02-10T04:08:08;7.80;99.90
851;DHT22;412;51.400;7.480;2023-02-10T04:10:34;7.70;99.90
851;DHT22;412;51.400;7.480;2023-02-10T04:13:00;7.70;99.90
851;DHT22;412;51.400;7.480;2023-02-10T04:15:26;7.60;99.90
851;DHT22;412;51.400;7.480;2023-02-10T04:17:52;7.60;99.90
851;DHT22;412;51.400;7.480;2023-02-10T04:20:17;7.50;99.90
851;DHT22;412;51.400;7.480;2023-02-10T04:22:43;7.40;99.90
851;DHT22;412;51.400;7.480;2023-02-10T04:25:09;7.30;99.90
851;DHT22;412;51.400;7.480;2023-02-10T04:27:35;7.20;99.90
851;DHT22;412;51.400;7.480;2023-02-10T04:30:01;7.10;99.90
851;DHT22;412;51.400;7.480;2023-02-10T04:32:26;7.20;99.90
851;DHT22;412;51.400;7.480;2023-02-10T04:34:52;7.00;99.90
851;DHT22;412;51.400;7.480;2023-02-10T04:37:18;6.90;99.90
851;DHT22;412;51.400;7.480;2023-02-10T04:39:44;6.90;99.90
851;DHT22;412;51.400;7.480;2023-02-10T04:42:09;6.90;99.90
851;DHT22;412;51.400;7.480;2023-02-10T04:44:37;6.80;99.90
851;DHT22;412;51.400;7.480;2023-02-10T04:47:03;6.80;99.90
851;DHT22;412;51.400;7.480;2023-02-10T04:49:29;6.70;99.90
851;DHT22;412;51.400;7.480;2023-02-10T04:51:54;6.60;99.90
851;DHT22;412;51.400;7.480;2023-02-10T04:54:20;6.60;99.90
851;DHT22;412;51.400;7.480;2023-02-10T04:56:46;6.70;99.90
851;DHT22;412;51.400;7.480;2023-02-10T04:59:12;6.60;99.90
851;DHT22;412;51.400;7.480;2023-02-10T05:01:38;6.60;99.90
851;DHT22;412;51.400;7.480;2023-02-10T05:04:04;6.50;99.90
851;DHT22;412;51.400;7.480;2023-02-10T05:06:30;6.50;99.90
851;DHT22;412;51.400;7.480;2023-02-10T05:08:55;6.40;99.90
851;DHT22;412;51.400;7.480;2023-02-10T05:11:21;6.30;99.90
851;DHT22;412;51.400;7.480;2023-02-10T05:13:47;6.30;99.90
851;DHT22;412;51.400;7.480;2023-02-10T05:16:13;6.30;99.90
851;DHT22;412;51.400;7.480;2023-02-10T05:18:40;6.20;99.90
851;DHT22;412;51.400;7.480;2023-02-10T05:21:06;6.20;99.90
851;DHT22;412;51.400;7.480;2023-02-10T05:23:35;6.20;99.90
851;DHT22;412;51.400;7.480;2023-02-10T05:26:01;6.20;99.90
851;DHT22;412;51.400;7.480;2023-02-10T05:28:27;6.20;99.90
851;DHT22;412;51.400;7.480;2023-02-10T05:30:53;6.10;99.90
851;DHT22;412;51.400;7.480;2023-02-10T05:33:19;6.10;99.90
851;DHT22;412;51.400;7.480;2023-02-10T05:35:45;6.10;99.90
851;DHT22;412;51.400;7.480;2023-02-10T05:38:11;6.10;99.90
851;DHT22;412;51.400;7.480;2023-02-10T05:40:37;6.10;99.90
851;DHT22;412;51.400;7.480;2023-02-10T05:43:03;6.00;99.90
851;DHT22;412;51.400;7.480;2023-02-10T05:45:29;6.00;99.90
851;DHT22;412;51.400;7.480;2023-02-10T05:47:54;6.00;99.90
851;DHT22;412;51.400;7.480;2023-02-10T05:50:20;6.00;99.90
851;DHT22;412;51.400;7.480;2023-02-10T05:52:46;6.00;99.90
851;DHT22;412;51.400;7.480;2023-02-10T05:55:12;6.00;99.90
851;DHT22;412;51.400;7.480;2023-02-10T05:57:38;6.00;99.90
851;DHT22;412;51.400;7.480;2023-02-10T06:00:05;6.00;99.90
851;DHT22;412;51.400;7.480;2023-02-10T06:02:31;6.00;99.90
851;DHT22;412;51.400;7.480;2023-02-10T06:04:57;6.00;99.90
851;DHT22;412;51.400;7.480;2023-02-10T06:07:23;6.00;99.90
851;DHT22;412;51.400;7.480;2023-02-10T06:09:48;6.00;99.90
851;DHT22;412;51.400;7.480;2023-02-10T06:12:14;6.10;99.90
851;DHT22;412;51.400;7.480;2023-02-10T06:14:40;6.00;99.90
851;DHT22;412;51.400;7.480;2023-02-10T06:17:06;6.00;99.90
851;DHT22;412;51.400;7.480;2023-02-10T06:19:37;6.00;99.90
851;DHT22;412;51.400;7.480;2023-02-10T06:22:04;6.10;99.90
851;DHT22;412;51.400;7.480;2023-02-10T06:24:30;6.10;99.90
851;DHT22;412;51.400;7.480;2023-02-10T06:26:56;6.00;99.90
851;DHT22;412;51.400;7.480;2023-02-10T06:29:22;5.90;99.90
851;DHT22;412;51.400;7.480;2023-02-10T06:31:47;5.80;99.90
851;DHT22;412;51.400;7.480;2023-02-10T06:34:13;5.80;99.90
851;DHT22;412;51.400;7.480;2023-02-10T06:36:39;5.90;99.90
851;DHT22;412;51.400;7.480;2023-02-10T06:39:05;5.80;99.90
851;DHT22;412;51.400;7.480;2023-02-10T06:41:31;5.80;99.90
851;DHT22;412;51.400;7.480;2023-02-10T06:43:57;5.90;99.90
851;DHT22;412;51.400;7.480;2023-02-10T06:46:24;5.90;99.90
851;DHT22;412;51.400;7.480;2023-02-10T06:48:50;5.90;99.90
851;DHT22;412;51.400;7.480;2023-02-10T06:51:16;6.00;99.90
851;DHT22;412;51.400;7.480;2023-02-10T06:53:41;5.90;99.90
851;DHT22;412;51.400;7.480;2023-02-10T06:56:08;5.90;99.90
851;DHT22;412;51.400;7.480;2023-02-10T06:58:34;5.90;99.90
851;DHT22;412;51.400;7.480;2023-02-10T07:01:00;6.00;99.90
851;DHT22;412;51.400;7.480;2023-02-10T07:03:27;6.00;99.90
851;DHT22;412;51.400;7.480;2023-02-10T07:05:52;5.90;99.90
851;DHT22;412;51.400;7.480;2023-02-10T07:08:18;5.90;99.90
851;DHT22;412;51.400;7.480;2023-02-10T07:10:44;5.90;99.90
851;DHT22;412;51.400;7.480;2023-02-10T07:13:09;5.90;99.90
851;DHT22;412;51.400;7.480;2023-02-10T07:15:35;5.90;99.90
851;DHT22;412;51.400;7.480;2023-02-10T07:18:01;5.90;99.90
851;DHT22;412;51.400;7.480;2023-02-10T07:20:27;5.90;99.90
851;DHT22;412;51.400;7.480;2023-02-10T07:22:53;5.90;99.90
851;DHT22;412;51.400;7.480;2023-02-10T07:25:18;6.00;99.90
851;DHT22;412;51.400;7.480;2023-02-10T07:27:44;6.10;99.90
851;DHT22;412;51.400;7.480;2023-02-10T07:30:11;6.10;99.90
851;DHT22;412;51.400;7.480;2023-02-10T07:32:37;6.10;99.90
851;DHT22;412;51.400;7.480;2023-02-10T07:35:03;6.10;99.90
851;DHT22;412;51.400;7.480;2023-02-10T07:37:29;6.10;99.90
851;DHT22;412;51.400;7.480;2023-02-10T07:39:55;6.10;99.90
851;DHT22;412;51.400;7.480;2023-02-10T07:42:21;6.20;99.90
851;DHT22;412;51.400;7.480;2023-02-10T07:44:46;6.20;99.90
851;DHT22;412;51.400;7.480;2023-02-10T07:47:12;6.30;99.90
851;DHT22;412;51.400;7.480;2023-02-10T07:49:38;6.30;99.90
851;DHT22;412;51.400;7.480;2023-02-10T07:52:04;6.40;99.90
851;DHT22;412;51.400;7.480;2023-02-10T07:54:30;6.60;99.90
851;DHT22;412;51.400;7.480;2023-02-10T07:56:58;7.40;99.90
851;DHT22;412;51.400;7.480;2023-02-10T07:59:24;8.20;99.90
851;DHT22;412;51.400;7.480;2023-02-10T08:01:50;8.90;99.90
851;DHT22;412;51.400;7.480;2023-02-10T08:04:15;9.50;99.90
851;DHT22;412;51.400;7.480;2023-02-10T08:06:41;10.10;99.90
851;DHT22;412;51.400;7.480;2023-02-10T08:09:07;10.60;99.90
851;DHT22;412;51.400;7.480;2023-02-10T08:11:33;11.00;99.90
851;DHT22;412;51.400;7.480;2023-02-10T08:14:01;11.40;99.20
851;DHT22;412;51.400;7.480;2023-02-10T08:16:27;11.80;97.40
851;DHT22;412;51.400;7.480;2023-02-10T08:18:52;12.00;95.50
851;DHT22;412;51.400;7.480;2023-02-10T08:21:18;12.20;94.40
851;DHT22;412;51.400;7.480;2023-02-10T08:23:44;12.50;93.50
851;DHT22;412;51.400;7.480;2023-02-10T08:26:12;12.70;92.80
851;DHT22;412;51.400;7.480;2023-02-10T08:28:39;12.90;91.90
851;DHT22;412;51.400;7.480;2023-02-10T08:31:07;13.10;91.30
851;DHT22;412;51.400;7.480;2023-02-10T08:33:37;12.90;87.60
851;DHT22;412;51.400;7.480;2023-02-10T08:36:09;12.60;87.10
851;DHT22;412;51.400;7.480;2023-02-10T08:38:35;12.10;87.60
851;DHT22;412;51.400;7.480;2023-02-10T08:41:01;11.70;89.30
851;DHT22;412;51.400;7.480;2023-02-10T08:43:27;11.40;90.50
851;DHT22;412;51.400;7.480;2023-02-10T08:46:00;11.00;91.40
851;DHT22;412;51.400;7.480;2023-02-10T08:48:27;10.70;92.40
851;DHT22;412;51.400;7.480;2023-02-10T08:50:53;10.40;93.90
851;DHT22;412;51.400;7.480;2023-02-10T08:53:19;10.20;95.00
851;DHT22;412;51.400;7.480;2023-02-10T08:55:59;9.90;96.60
851;DHT22;412;51.400;7.480;2023-02-10T08:58:25;9.70;97.50
851;DHT22;412;51.400;7.480;2023-02-10T09:00:51;9.50;98.30
851;DHT22;412;51.400;7.480;2023-02-10T09:03:16;9.40;99.20
851;DHT22;412;51.400;7.480;2023-02-10T09:05:42;9.30;99.90
851;DHT22;412;51.400;7.480;2023-02-10T09:08:12;9.10;99.90
851;DHT22;412;51.400;7.480;2023-02-10T09:10:39;9.00;99.90
851;DHT22;412;51.400;7.480;2023-02-10T09:13:06;8.90;99.90
851;DHT22;412;51.400;7.480;2023-02-10T09:15:39;8.70;99.90
851;DHT22;412;51.400;7.480;2023-02-10T09:18:06;8.60;99.90
851;DHT22;412;51.400;7.480;2023-02-10T09:20:32;8.50;99.90
851;DHT22;412;51.400;7.480;2023-02-10T09:22:58;8.50;99.90
851;DHT22;412;51.400;7.480;2023-02-10T09:25:23;8.50;99.90
851;DHT22;412;51.400;7.480;2023-02-10T09:27:51;8.60;99.90
851;DHT22;412;51.400;7.480;2023-02-10T09:30:17;8.60;99.90
851;DHT22;412;51.400;7.480;2023-02-10T09:32:43;8.70;99.90
851;DHT22;412;51.400;7.480;2023-02-10T09:35:08;8.70;99.90
851;DHT22;412;51.400;7.480;2023-02-10T09:37:34;8.70;99.90
851;DHT22;412;51.400;7.480;2023-02-10T09:40:00;8.80;99.90
851;DHT22;412;51.400;7.480;2023-02-10T09:45:17;8.80;99.90
851;DHT22;412;51.400;7.480;2023-02-10T09:47:59;8.80;99.90
851;DHT22;412;51.400;7.480;2023-02-10T09:58:30;9.30;99.90
851;DHT22;412;51.400;7.480;2023-02-10T10:01:30;9.40;99.90
851;DHT22;412;51.400;7.480;2023-02-10T10:06:32;9.50;99.90
851;DHT22;412;51.400;7.480;2023-02-10T10:11:40;9.40;99.90
851;DHT22;412;51.400;7.480;2023-02-10T10:14:18;9.40;99.90
851;DHT22;412;51.400;7.480;2023-02-10T10:25:27;9.60;99.40
851;DHT22;412;51.400;7.480;2023-02-10T10:31:08;9.80;99.60
851;DHT22;412;51.400;7.480;2023-02-10T10:33:54;10.00;99.60
851;DHT22;412;51.400;7.480;2023-02-10T10:36:49;10.30;99.90
851;DHT22;412;51.400;7.480;2023-02-10T10:39:28;10.70;98.60
851;DHT22;412;51.400;7.480;2023-02-10T10:41:56;10.90;96.70
851;DHT22;412;51.400;7.480;2023-02-10T10:44:24;11.10;95.70
851;DHT22;412;51.400;7.480;2023-02-10T10:47:03;11.10;96.30
851;DHT22;412;51.400;7.480;2023-02-10T10:49:35;11.20;96.00
851;DHT22;412;51.400;7.480;2023-02-10T10:52:02;11.60;95.00
851;DHT22;412;51.400;7.480;2023-02-10T10:54:28;11.90;93.80
851;DHT22;412;51.400;7.480;2023-02-10T10:57:00;12.20;92.90
851;DHT22;412;51.400;7.480;2023-02-10T10:59:43;12.40;91.90
851;DHT22;412;51.400;7.480;2023-02-10T11:02:20;12.50;90.30
851;DHT22;412;51.400;7.480;2023-02-10T11:04:58;12.70;90.00
851;DHT22;412;51.400;7.480;2023-02-10T11:07:24;12.70;88.50
851;DHT22;412;51.400;7.480;2023-02-10T11:09:52;12.70;89.10
851;DHT22;412;51.400;7.480;2023-02-10T11:12:38;12.90;89.20
851;DHT22;412;51.400;7.480;2023-02-10T11:17:57;13.20;87.00
851;DHT22;412;51.400;7.480;2023-02-10T11:20:32;13.30;86.30
851;DHT22;412;51.400;7.480;2023-02-10T11:23:01;13.30;88.00
851;DHT22;412;51.400;7.480;2023-02-10T11:25:31;13.30;86.40
851;DHT22;412;51.400;7.480;2023-02-10T11:28:01;13.30;85.30
851;DHT22;412;51.400;7.480;2023-02-10T11:30:31;13.20;86.00
851;DHT22;412;51.400;7.480;2023-02-10T11:33:00;13.10;85.60
851;DHT22;412;51.400;7.480;2023-02-10T11:35:27;13.00;85.40
851;DHT22;412;51.400;7.480;2023-02-10T11:37:56;12.80;85.80
851;DHT22;412;51.400;7.480;2023-02-10T11:40:31;12.60;85.70
851;DHT22;412;51.400;7.480;2023-02-10T11:43:05;12.40;87.00
851;DHT22;412;51.400;7.480;2023-02-10T11:45:34;12.20;88.20
851;DHT22;412;51.400;7.480;2023-02-10T11:48:13;12.20;90.00
851;DHT22;412;51.400;7.480;2023-02-10T11:50:39;12.30;89.50
851;DHT22;412;51.400;7.480;2023-02-10T11:53:04;12.30;88.50
851;DHT22;412;51.400;7.480;2023-02-10T11:55:51;12.30;88.10
851;DHT22;412;51.400;7.480;2023-02-10T11:58:36;12.20;88.60
851;DHT22;412;51.400;7.480;2023-02-10T12:02:06;12.20;88.30
851;DHT22;412;51.400;7.480;2023-02-10T12:07:20;12.70;87.40
851;DHT22;412;51.400;7.480;2023-02-10T12:10:07;12.70;86.60
851;DHT22;412;51.400;7.480;2023-02-10T12:12:51;12.70;86.90
851;DHT22;412;51.400;7.480;2023-02-10T12:24:04;12.30;86.30
851;DHT22;412;51.400;7.480;2023-02-10T12:27:03;12.30;87.00
851;DHT22;412;51.400;7.480;2023-02-10T12:29:45;12.20;88.30
851;DHT22;412;51.400;7.480;2023-02-10T13:02:52;12.20;88.60
851;DHT22;412;51.400;7.480;2023-02-10T13:05:27;12.20;87.80
851;DHT22;412;51.400;7.480;2023-02-10T13:07:57;12.10;87.50
851;DHT22;412;51.400;7.480;2023-02-10T13:10:45;11.90;87.10
851;DHT22;412;51.400;7.480;2023-02-10T13:13:15;11.80;87.40
851;DHT22;412;51.400;7.480;2023-02-10T13:16:32;11.80;87.30
851;DHT22;412;51.400;7.480;2023-02-10T13:21:29;11.60;88.70
851;DHT22;412;51.400;7.480;2023-02-10T13:24:19;11.60;88.80
851;DHT22;412;51.400;7.480;2023-02-10T13:27:10;11.50;88.60
851;DHT22;412;51.400;7.480;2023-02-10T13:29:47;11.60;88.20
851;DHT22;412;51.400;7.480;2023-02-10T13:35:23;11.60;87.00
851;DHT22;412;51.400;7.480;2023-02-10T13:37:52;11.50;87.60
851;DHT22;412;51.400;7.480;2023-02-10T13:40:22;11.50;89.50
851;DHT22;412;51.400;7.480;2023-02-10T13:43:00;11.50;88.80
851;DHT22;412;51.400;7.480;2023-02-10T13:45:29;11.40;88.10
851;DHT22;412;51.400;7.480;2023-02-10T13:47:59;11.40;87.10
851;DHT22;412;51.400;7.480;2023-02-10T13:50:32;11.40;85.20
851;DHT22;412;51.400;7.480;2023-02-10T14:04:02;11.60;81.50
851;DHT22;412;51.400;7.480;2023-02-10T14:06:40;11.60;81.50
851;DHT22;412;51.400;7.480;2023-02-10T14:09:32;11.60;82.10
851;DHT22;412;51.400;7.480;2023-02-10T14:12:01;11.50;81.90
851;DHT22;412;51.400;7.480;2023-02-10T14:14:36;11.60;82.40
851;DHT22;412;51.400;7.480;2023-02-10T14:19:46;11.50;83.80
851;DHT22;412;51.400;7.480;2023-02-10T14:22:25;11.50;83.40
851;DHT22;412;51.400;7.480;2023-02-10T14:24:54;11.50;83.80
851;DHT22;412;51.400;7.480;2023-02-10T14:27:22;11.40;84.80
851;DHT22;412;51.400;7.480;2023-02-10T14:29:55;11.50;85.30
851;DHT22;412;51.400;7.480;2023-02-10T14:32:22;11.50;85.50
851;DHT22;412;51.400;7.480;2023-02-10T14:34:59;11.40;85.70
851;DHT22;412;51.400;7.480;2023-02-10T14:37:25;11.30;86.60
851;DHT22;412;51.400;7.480;2023-02-10T14:39:54;11.30;86.20
851;DHT22;412;51.400;7.480;2023-02-10T14:42:22;11.30;86.40
851;DHT22;412;51.400;7.480;2023-02-10T14:44:51;11.20;87.40
851;DHT22;412;51.400;7.480;2023-02-10T14:49:48;11.20;86.90
851;DHT22;412;51.400;7.480;2023-02-10T14:54:47;11.10;87.20
851;DHT22;412;51.400;7.480;2023-02-10T14:57:16;11.10;87.20
851;DHT22;412;51.400;7.480;2023-02-10T14:59:42;11.00;88.20
851;DHT22;412;51.400;7.480;2023-02-10T15:02:17;10.90;88.80
851;DHT22;412;51.400;7.480;2023-02-10T15:04:46;10.80;89.40
851;DHT22;412;51.400;7.480;2023-02-10T15:09:59;10.70;89.90
851;DHT22;412;51.400;7.480;2023-02-10T15:12:25;10.70;90.10
851;DHT22;412;51.400;7.480;2023-02-10T15:15:22;10.70;89.80
851;DHT22;412;51.400;7.480;2023-02-10T15:17:52;10.70;89.30
851;DHT22;412;51.400;7.480;2023-02-10T15:20:25;10.70;89.20
851;DHT22;412;51.400;7.480;2023-02-10T15:31:25;10.60;90.00
851;DHT22;412;51.400;7.480;2023-02-10T15:33:58;10.70;90.20
851;DHT22;412;51.400;7.480;2023-02-10T15:36:29;10.50;90.00
851;DHT22;412;51.400;7.480;2023-02-10T15:41:35;10.60;90.40
851;DHT22;412;51.400;7.480;2023-02-10T15:44:03;10.70;90.40
851;DHT22;412;51.400;7.480;2023-02-10T15:46:30;10.60;90.50
851;DHT22;412;51.400;7.480;2023-02-10T15:49:11;10.60;90.50
851;DHT22;412;51.400;7.480;2023-02-10T15:51:43;10.60;90.70
851;DHT22;412;51.400;7.480;2023-02-10T15:54:13;10.60;90.50
851;DHT22;412;51.400;7.480;2023-02-10T15:56:39;10.60;90.40
851;DHT22;412;51.400;7.480;2023-02-10T15:59:14;10.60;90.50
851;DHT22;412;51.400;7.480;2023-02-10T16:01:40;10.60;90.50
851;DHT22;412;51.400;7.480;2023-02-10T16:04:06;10.50;90.60
851;DHT22;412;51.400;7.480;2023-02-10T16:06:32;10.50;90.60
851;DHT22;412;51.400;7.480;2023-02-10T16:08:57;10.50;90.60
851;DHT22;412;51.400;7.480;2023-02-10T16:11:23;10.50;90.60
851;DHT22;412;51.400;7.480;2023-02-10T16:13:51;10.50;90.50
851;DHT22;412;51.400;7.480;2023-02-10T16:16:17;10.40;90.30
851;DHT22;412;51.400;7.480;2023-02-10T16:18:42;10.40;90.30
851;DHT22;412;51.400;7.480;2023-02-10T16:21:11;10.30;90.40
851;DHT22;412;51.400;7.480;2023-02-10T16:23:40;10.40;90.40
851;DHT22;412;51.400;7.480;2023-02-10T16:26:06;10.40;90.50
851;DHT22;412;51.400;7.480;2023-02-10T16:28:32;10.30;90.70
851;DHT22;412;51.400;7.480;2023-02-10T16:30:57;10.20;90.50
851;DHT22;412;51.400;7.480;2023-02-10T16:33:23;10.20;90.70
851;DHT22;412;51.400;7.480;2023-02-10T16:35:54;10.20;91.60
851;DHT22;412;51.400;7.480;2023-02-10T16:38:20;10.20;91.20
851;DHT22;412;51.400;7.480;2023-02-10T16:40:46;10.20;91.20
851;DHT22;412;51.400;7.480;2023-02-10T16:43:11;10.20;90.90
851;DHT22;412;51.400;7.480;2023-02-10T16:45:37;10.20;90.60
851;DHT22;412;51.400;7.480;2023-02-10T16:48:03;10.10;90.70
851;DHT22;412;51.400;7.480;2023-02-10T16:52:55;10.10;90.80
851;DHT22;412;51.400;7.480;2023-02-10T16:55:21;10.20;90.70
851;DHT22;412;51.400;7.480;2023-02-10T16:57:47;10.20;90.70
851;DHT22;412;51.400;7.480;2023-02-10T17:00:14;10.20;91.00
851;DHT22;412;51.400;7.480;2023-02-10T17:02:41;10.10;90.70
851;DHT22;412;51.400;7.480;2023-02-10T17:05:08;10.00;90.80
851;DHT22;412;51.400;7.480;2023-02-10T17:07:35;10.00;90.90
851;DHT22;412;51.400;7.480;2023-02-10T17:10:01;10.00;91.20
851;DHT22;412;51.400;7.480;2023-02-10T17:12:27;9.90;91.90
851;DHT22;412;51.400;7.480;2023-02-10T17:14:52;9.90;92.30
851;DHT22;412;51.400;7.480;2023-02-10T17:17:18;9.90;92.50
851;DHT22;412;51.400;7.480;2023-02-10T17:19:44;9.90;92.30
851;DHT22;412;51.400;7.480;2023-02-10T17:22:09;9.90;92.30
851;DHT22;412;51.400;7.480;2023-02-10T17:24:35;9.90;92.30
851;DHT22;412;51.400;7.480;2023-02-10T17:27:01;9.80;92.40
851;DHT22;412;51.400;7.480;2023-02-10T17:29:27;9.80;92.40
851;DHT22;412;51.400;7.480;2023-02-10T17:31:53;9.80;92.40
851;DHT22;412;51.400;7.480;2023-02-10T17:34:19;9.80;92.70
851;DHT22;412;51.400;7.480;2023-02-10T17:36:45;9.80;92.90
851;DHT22;412;51.400;7.480;2023-02-10T17:39:17;9.80;93.00
851;DHT22;412;51.400;7.480;2023-02-10T17:41:53;9.70;93.20
851;DHT22;412;51.400;7.480;2023-02-10T17:44:20;9.70;93.40
851;DHT22;412;51.400;7.480;2023-02-10T17:46:45;9.70;93.80
851;DHT22;412;51.400;7.480;2023-02-10T17:49:15;9.70;94.00
851;DHT22;412;51.400;7.480;2023-02-10T17:51:41;9.70;94.20
851;DHT22;412;51.400;7.480;2023-02-10T17:54:08;9.70;94.20
851;DHT22;412;51.400;7.480;2023-02-10T17:56:34;9.70;94.10
851;DHT22;412;51.400;7.480;2023-02-10T17:59:03;9.70;94.00
851;DHT22;412;51.400;7.480;2023-02-10T18:01:31;9.70;93.90
851;DHT22;412;51.400;7.480;2023-02-10T18:03:57;9.70;93.90
851;DHT22;412;51.400;7.480;2023-02-10T18:06:23;9.70;93.90
851;DHT22;412;51.400;7.480;2023-02-10T18:08:51;9.70;94.00
851;DHT22;412;51.400;7.480;2023-02-10T18:11:17;9.70;94.10
851;DHT22;412;51.400;7.480;2023-02-10T18:13:43;9.60;94.10
851;DHT22;412;51.400;7.480;2023-02-10T18:16:09;9.60;94.40
851;DHT22;412;51.400;7.480;2023-02-10T18:18:36;9.50;94.90
851;DHT22;412;51.400;7.480;2023-02-10T18:21:02;9.50;95.20
851;DHT22;412;51.400;7.480;2023-02-10T18:23:27;9.40;95.30
851;DHT22;412;51.400;7.480;2023-02-10T18:25:53;9.40;95.50
851;DHT22;412;51.400;7.480;2023-02-10T18:28:19;9.50;95.70
851;DHT22;412;51.400;7.480;2023-02-10T18:30:46;9.50;95.70
851;DHT22;412;51.400;7.480;2023-02-10T18:33:13;9.40;95.60
851;DHT22;412;51.400;7.480;2023-02-10T18:35:40;9.40;95.70
851;DHT22;412;51.400;7.480;2023-02-10T18:38:06;9.50;96.10
851;DHT22;412;51.400;7.480;2023-02-10T18:40:33;9.50;96.20
851;DHT22;412;51.400;7.480;2023-02-10T18:43:00;9.50;96.10
851;DHT22;412;51.400;7.480;2023-02-10T18:45:25;9.50;95.90
851;DHT22;412;51.400;7.480;2023-02-10T18:47:51;9.50;96.00
851;DHT22;412;51.400;7.480;2023-02-10T18:50:17;9.60;96.00
851;DHT22;412;51.400;7.480;2023-02-10T18:52:43;9.50;96.20
851;DHT22;412;51.400;7.480;2023-02-10T18:55:09;9.50;96.20
851;DHT22;412;51.400;7.480;2023-02-10T18:57:35;9.50;96.40
851;DHT22;412;51.400;7.480;2023-02-10T19:00:02;9.50;96.60
851;DHT22;412;51.400;7.480;2023-02-10T19:02:28;9.50;97.50
851;DHT22;412;51.400;7.480;2023-02-10T19:04:54;9.50;97.30
851;DHT22;412;51.400;7.480;2023-02-10T19:07:19;9.40;98.00
851;DHT22;412;51.400;7.480;2023-02-10T19:09:45;9.40;98.20
851;DHT22;412;51.400;7.480;2023-02-10T19:12:11;9.50;98.50
851;DHT22;412;51.400;7.480;2023-02-10T19:14:36;9.40;99.40